createdAt,value
2018-02-08T00:00:57.592Z,1008.75
2018-02-08T00:01:57.558Z,1008.76
2018-02-08T00:02:57.522Z,1008.76
2018-02-08T00:03:57.530Z,1008.69
2018-02-08T00:04:57.451Z,1008.71
2018-02-08T00:05:57.416Z,1008.72
2018-02-08T00:06:57.379Z,1008.69
2018-02-08T00:07:57.344Z,1008.72
2018-02-08T00:08:57.310Z,1008.71
2018-02-08T00:09:57.274Z,1008.7
2018-02-08T00:10:57.656Z,1008.72
2018-02-08T00:11:57.202Z,1008.69
2018-02-08T00:12:57.168Z,1008.71
2018-02-08T00:13:57.130Z,1008.7
2018-02-08T00:14:57.095Z,1008.71
2018-02-08T00:15:57.061Z,1008.72
2018-02-08T00:16:57.029Z,1008.7
2018-02-08T00:17:56.990Z,1008.73
2018-02-08T00:18:56.954Z,1008.73
2018-02-08T00:19:56.926Z,1008.75
2018-02-08T00:20:56.883Z,1008.75
2018-02-08T00:21:56.848Z,1008.7
2018-02-08T00:22:56.812Z,1008.72
2018-02-08T00:23:56.778Z,1008.74
2018-02-08T00:24:56.741Z,1008.72
2018-02-08T00:25:56.704Z,1008.73
2018-02-08T00:26:56.669Z,1008.74
2018-02-08T00:27:56.641Z,1008.73
2018-02-08T00:28:56.599Z,1008.71
2018-02-08T00:29:56.567Z,1008.68
2018-02-08T00:30:56.526Z,1008.68
2018-02-08T00:31:56.492Z,1008.68
2018-02-08T00:32:56.455Z,1008.63
2018-02-08T00:33:56.420Z,1008.59
2018-02-08T00:34:56.384Z,1008.6
2018-02-08T00:35:56.349Z,1008.66
2018-02-08T00:36:56.313Z,1008.63
2018-02-08T00:37:56.277Z,1008.63
2018-02-08T00:38:56.242Z,1008.62
2018-02-08T00:39:56.205Z,1008.59
2018-02-08T00:40:56.170Z,1008.59
2018-02-08T00:41:56.136Z,1008.62
2018-02-08T00:42:56.101Z,1008.62
2018-02-08T00:43:56.064Z,1008.64
2018-02-08T00:44:56.029Z,1008.67
2018-02-08T00:45:55.993Z,1008.7
2018-02-08T00:46:55.956Z,1008.64
2018-02-08T00:47:55.921Z,1008.69
2018-02-08T00:48:55.887Z,1008.71
2018-02-08T00:49:55.851Z,1008.72
2018-02-08T00:50:55.815Z,1008.7
2018-02-08T00:51:55.786Z,1008.69
2018-02-08T00:52:55.744Z,1008.7
2018-02-08T00:53:55.709Z,1008.69
2018-02-08T00:54:55.676Z,1008.72
2018-02-08T00:55:55.638Z,1008.72
2018-02-08T00:56:55.603Z,1008.68
2018-02-08T00:57:55.567Z,1008.72
2018-02-08T00:58:55.532Z,1008.68
2018-02-08T00:59:55.495Z,1008.71
2018-02-08T01:00:55.460Z,1008.76
2018-02-08T01:01:55.424Z,1008.75
2018-02-08T01:02:55.389Z,1008.71
2018-02-08T01:03:55.352Z,1008.71
2018-02-08T01:04:55.316Z,1008.72
2018-02-08T01:05:55.281Z,1008.72
2018-02-08T01:06:55.245Z,1008.74
2018-02-08T01:07:55.211Z,1008.76
2018-02-08T01:08:55.174Z,1008.77
2018-02-08T01:09:55.140Z,1008.76
2018-02-08T01:10:55.103Z,1008.76
2018-02-08T01:11:55.068Z,1008.73
2018-02-08T01:12:55.032Z,1008.78
2018-02-08T01:13:54.996Z,1008.79
2018-02-08T01:14:54.961Z,1008.78
2018-02-08T01:15:54.923Z,1008.8
2018-02-08T01:16:54.889Z,1008.82
2018-02-08T01:17:54.853Z,1008.71
2018-02-08T01:18:54.817Z,1008.74
2018-02-08T01:19:54.782Z,1008.81
2018-02-08T01:20:54.746Z,1008.77
2018-02-08T01:21:54.710Z,1008.73
2018-02-08T01:22:54.676Z,1008.76
2018-02-08T01:23:54.639Z,1008.76
2018-02-08T01:24:54.603Z,1008.79
2018-02-08T01:25:54.567Z,1008.77
2018-02-08T01:26:54.530Z,1008.73
2018-02-08T01:27:54.494Z,1008.76
2018-02-08T01:28:54.460Z,1008.75
2018-02-08T01:29:54.423Z,1008.74
2018-02-08T01:30:54.387Z,1008.74
2018-02-08T01:31:54.351Z,1008.68
2018-02-08T01:32:54.319Z,1008.73
2018-02-08T01:33:54.283Z,1008.69
2018-02-08T01:34:54.244Z,1008.66
2018-02-08T01:35:54.209Z,1008.68
2018-02-08T01:36:54.173Z,1008.69
2018-02-08T01:37:54.136Z,1008.67
2018-02-08T01:38:54.101Z,1008.68
2018-02-08T01:39:54.065Z,1008.71
2018-02-08T01:40:54.031Z,1008.7
2018-02-08T01:41:53.993Z,1008.7
2018-02-08T01:42:53.957Z,1008.72
2018-02-08T01:43:53.922Z,1008.73
2018-02-08T01:44:53.886Z,1008.69
2018-02-08T01:45:53.849Z,1008.68
2018-02-08T01:46:53.815Z,1008.65
2018-02-08T01:47:53.779Z,1008.65
2018-02-08T01:48:53.744Z,1008.61
2018-02-08T01:49:53.706Z,1008.59
2018-02-08T01:50:53.672Z,1008.59
2018-02-08T01:51:53.634Z,1008.59
2018-02-08T01:52:53.600Z,1008.6
2018-02-08T01:53:53.563Z,1008.6
2018-02-08T01:54:53.528Z,1008.59
2018-02-08T01:55:53.492Z,1008.59
2018-02-08T01:56:53.456Z,1008.58
2018-02-08T01:57:53.420Z,1008.66
2018-02-08T01:58:53.383Z,1008.65
2018-02-08T01:59:53.347Z,1008.67
2018-02-08T02:00:53.312Z,1008.66
2018-02-08T02:01:53.276Z,1008.64
2018-02-08T02:02:53.241Z,1008.7
2018-02-08T02:03:53.204Z,1008.7
2018-02-08T02:04:53.170Z,1008.7
2018-02-08T02:05:53.132Z,1008.71
2018-02-08T02:06:53.095Z,1008.69
2018-02-08T02:07:53.060Z,1008.67
2018-02-08T02:08:53.027Z,1008.67
2018-02-08T02:09:52.988Z,1008.68
2018-02-08T02:10:52.952Z,1008.69
2018-02-08T02:11:52.915Z,1008.72
2018-02-08T02:12:52.880Z,1008.72
2018-02-08T02:13:52.847Z,1008.69
2018-02-08T02:14:52.807Z,1008.72
2018-02-08T02:15:52.771Z,1008.7
2018-02-08T02:16:52.737Z,1008.73
2018-02-08T02:17:52.701Z,1008.72
2018-02-08T02:18:52.665Z,1008.72
2018-02-08T02:19:52.630Z,1008.76
2018-02-08T02:20:52.594Z,1008.75
2018-02-08T02:21:52.555Z,1008.75
2018-02-08T02:22:52.521Z,1008.76
2018-02-08T02:23:52.484Z,1008.74
2018-02-08T02:24:52.448Z,1008.72
2018-02-08T02:25:52.414Z,1008.75
2018-02-08T02:26:52.376Z,1008.77
2018-02-08T02:27:52.341Z,1008.78
2018-02-08T02:28:52.304Z,1008.81
2018-02-08T02:29:52.269Z,1008.78
2018-02-08T02:30:52.235Z,1008.79
2018-02-08T02:31:52.199Z,1008.82
2018-02-08T02:32:52.161Z,1008.79
2018-02-08T02:33:52.127Z,1008.74
2018-02-08T02:34:52.091Z,1008.76
2018-02-08T02:35:52.055Z,1008.72
2018-02-08T02:36:52.018Z,1008.74
2018-02-08T02:37:51.981Z,1008.74
2018-02-08T02:38:51.946Z,1008.68
2018-02-08T02:39:51.910Z,1008.72
2018-02-08T02:40:51.882Z,1008.68
2018-02-08T02:41:51.838Z,1008.72
2018-02-08T02:42:51.803Z,1008.72
2018-02-08T02:43:51.767Z,1008.72
2018-02-08T02:44:51.730Z,1008.72
2018-02-08T02:45:51.694Z,1008.7
2018-02-08T02:46:51.659Z,1008.68
2018-02-08T02:47:51.622Z,1008.71
2018-02-08T02:48:51.590Z,1008.68
2018-02-08T02:49:51.552Z,1008.67
2018-02-08T02:50:51.517Z,1008.7
2018-02-08T02:51:51.578Z,1008.68
2018-02-08T02:52:51.443Z,1008.69
2018-02-08T02:53:51.408Z,1008.72
2018-02-08T02:54:51.370Z,1008.68
2018-02-08T02:55:51.335Z,1008.66
2018-02-08T02:56:51.299Z,1008.66
2018-02-08T02:57:51.262Z,1008.63
2018-02-08T02:58:51.226Z,1008.66
2018-02-08T02:59:51.192Z,1008.66
2018-02-08T03:00:51.156Z,1008.68
2018-02-08T03:01:51.159Z,1008.74
2018-02-08T03:02:51.082Z,1008.72
2018-02-08T03:03:51.047Z,1008.7
2018-02-08T03:04:51.011Z,1008.72
2018-02-08T03:05:50.974Z,1008.71
2018-02-08T03:06:50.939Z,1008.71
2018-02-08T03:07:50.902Z,1008.72
2018-02-08T03:08:50.868Z,1008.7
2018-02-08T03:09:50.830Z,1008.71
2018-02-08T03:10:50.799Z,1008.74
2018-02-08T03:11:50.758Z,1008.73
2018-02-08T03:12:50.721Z,1008.77
2018-02-08T03:13:50.686Z,1008.79
2018-02-08T03:14:50.651Z,1008.73
2018-02-08T03:15:50.615Z,1008.8
2018-02-08T03:16:50.578Z,1008.73
2018-02-08T03:17:50.543Z,1008.78
2018-02-08T03:18:50.507Z,1008.77
2018-02-08T03:19:50.470Z,1008.74
2018-02-08T03:20:50.435Z,1008.77
2018-02-08T03:21:50.397Z,1008.82
2018-02-08T03:22:50.363Z,1008.78
2018-02-08T03:23:50.325Z,1008.82
2018-02-08T03:24:50.290Z,1008.76
2018-02-08T03:25:50.254Z,1008.79
2018-02-08T03:26:50.217Z,1008.81
2018-02-08T03:27:50.180Z,1008.79
2018-02-08T03:28:50.144Z,1008.86
2018-02-08T03:29:50.109Z,1008.86
2018-02-08T03:30:50.074Z,1008.9
2018-02-08T03:31:50.036Z,1008.9
2018-02-08T03:32:50.002Z,1008.88
2018-02-08T03:33:49.966Z,1008.91
2018-02-08T03:34:49.928Z,1008.9
2018-02-08T03:35:49.893Z,1008.91
2018-02-08T03:36:49.856Z,1008.93
2018-02-08T03:37:49.821Z,1008.89
2018-02-08T03:38:49.792Z,1008.88
2018-02-08T03:39:49.747Z,1008.89
2018-02-08T03:40:49.712Z,1008.86
2018-02-08T03:41:49.675Z,1008.85
2018-02-08T03:42:49.639Z,1008.86
2018-02-08T03:43:49.603Z,1008.91
2018-02-08T03:44:49.567Z,1008.91
2018-02-08T03:45:49.531Z,1008.91
2018-02-08T03:46:49.494Z,1008.93
2018-02-08T03:47:49.458Z,1008.9
2018-02-08T03:48:49.423Z,1008.89
2018-02-08T03:49:49.384Z,1008.88
2018-02-08T03:50:49.350Z,1008.89
2018-02-08T03:51:49.314Z,1008.87
2018-02-08T03:52:49.277Z,1008.93
2018-02-08T03:53:49.241Z,1008.94
2018-02-08T03:54:49.205Z,1008.96
2018-02-08T03:55:49.168Z,1009
2018-02-08T03:56:49.131Z,1009
2018-02-08T03:57:49.097Z,1008.97
2018-02-08T03:58:49.059Z,1009.01
2018-02-08T03:59:49.023Z,1008.99
2018-02-08T04:00:48.986Z,1009.02
2018-02-08T04:01:48.950Z,1009.05
2018-02-08T04:02:48.915Z,1009.05
2018-02-08T04:03:48.879Z,1009.08
2018-02-08T04:04:48.842Z,1009.07
2018-02-08T04:05:48.805Z,1009.06
2018-02-08T04:06:48.769Z,1009.1
2018-02-08T04:07:48.732Z,1009.1
2018-02-08T04:08:48.697Z,1009.09
2018-02-08T04:09:48.731Z,1009.03
2018-02-08T04:10:48.625Z,1009.06
2018-02-08T04:11:48.588Z,1009.07
2018-02-08T04:12:48.552Z,1009.09
2018-02-08T04:13:48.516Z,1009.06
2018-02-08T04:14:48.478Z,1009.07
2018-02-08T04:15:48.442Z,1009.08
2018-02-08T04:16:48.407Z,1009.11
2018-02-08T04:17:48.370Z,1009.1
2018-02-08T04:18:48.332Z,1009.13
2018-02-08T04:19:48.297Z,1009.14
2018-02-08T04:20:48.261Z,1009.12
2018-02-08T04:21:48.226Z,1009.1
2018-02-08T04:22:48.188Z,1009.1
2018-02-08T04:23:48.152Z,1009.16
2018-02-08T04:24:48.116Z,1009.17
2018-02-08T04:25:48.078Z,1009.13
2018-02-08T04:26:48.042Z,1009.19
2018-02-08T04:27:48.007Z,1009.17
2018-02-08T04:28:47.970Z,1009.13
2018-02-08T04:29:47.934Z,1009.15
2018-02-08T04:30:47.897Z,1009.15
2018-02-08T04:31:47.861Z,1009.18
2018-02-08T04:32:47.824Z,1009.15
2018-02-08T04:33:47.789Z,1009.17
2018-02-08T04:34:47.751Z,1009.19
2018-02-08T04:35:47.720Z,1009.16
2018-02-08T04:36:47.678Z,1009.15
2018-02-08T04:37:47.643Z,1009.19
2018-02-08T04:38:47.607Z,1009.19
2018-02-08T04:39:47.570Z,1009.17
2018-02-08T04:40:47.533Z,1009.14
2018-02-08T04:41:47.503Z,1009.14
2018-02-08T04:42:47.461Z,1009.16
2018-02-08T04:43:47.425Z,1009.13
2018-02-08T04:44:47.387Z,1009.16
2018-02-08T04:45:47.352Z,1009.12
2018-02-08T04:46:47.316Z,1009.16
2018-02-08T04:47:47.278Z,1009.11
2018-02-08T04:48:47.242Z,1009.09
2018-02-08T04:49:47.207Z,1009.1
2018-02-08T04:50:47.170Z,1009.14
2018-02-08T04:51:47.132Z,1009.11
2018-02-08T04:52:47.096Z,1009.15
2018-02-08T04:53:47.061Z,1009.14
2018-02-08T04:54:47.024Z,1009.19
2018-02-08T04:55:46.989Z,1009.16
2018-02-08T04:56:46.950Z,1009.17
2018-02-08T04:57:46.916Z,1009.17
2018-02-08T04:58:46.878Z,1009.18
2018-02-08T04:59:46.843Z,1009.16
2018-02-08T05:00:46.807Z,1009.16
2018-02-08T05:01:46.768Z,1009.13
2018-02-08T05:02:46.732Z,1009.14
2018-02-08T05:03:46.695Z,1009.08
2018-02-08T05:04:46.659Z,1009.08
2018-02-08T05:05:46.622Z,1009.04
2018-02-08T05:06:46.585Z,1009.04
2018-02-08T05:07:46.550Z,1009.04
2018-02-08T05:08:46.513Z,1009.01
2018-02-08T05:09:46.475Z,1009
2018-02-08T05:10:46.439Z,1009.02
2018-02-08T05:11:46.402Z,1009.02
2018-02-08T05:12:46.367Z,1009.06
2018-02-08T05:13:46.330Z,1009.06
2018-02-08T05:14:46.292Z,1009.05
2018-02-08T05:15:46.256Z,1009.09
2018-02-08T05:16:46.234Z,1009.01
2018-02-08T05:17:46.183Z,1009.01
2018-02-08T05:18:46.146Z,1009.02
2018-02-08T05:19:46.110Z,1009.07
2018-02-08T05:20:46.073Z,1009.07
2018-02-08T05:21:46.039Z,1009.09
2018-02-08T05:22:46.002Z,1009.04
2018-02-08T05:23:45.963Z,1009.08
2018-02-08T05:24:45.927Z,1009.1
2018-02-08T05:25:45.890Z,1009.08
2018-02-08T05:26:45.855Z,1009.05
2018-02-08T05:27:45.818Z,1009.07
2018-02-08T05:28:45.780Z,1009.13
2018-02-08T05:29:45.743Z,1009.1
2018-02-08T05:30:45.707Z,1009.1
2018-02-08T05:31:45.669Z,1009.08
2018-02-08T05:32:45.633Z,1009.06
2018-02-08T05:33:45.597Z,1009.1
2018-02-08T05:34:45.560Z,1009.1
2018-02-08T05:35:45.523Z,1009.1
2018-02-08T05:36:45.486Z,1009.1
2018-02-08T05:37:45.450Z,1009.09
2018-02-08T05:38:45.413Z,1009.09
2018-02-08T05:39:45.377Z,1009.12
2018-02-08T05:40:45.341Z,1009.13
2018-02-08T05:41:45.309Z,1009.15
2018-02-08T05:42:45.267Z,1009.11
2018-02-08T05:43:45.230Z,1009.12
2018-02-08T05:44:45.193Z,1009.13
2018-02-08T05:45:45.160Z,1009.15
2018-02-08T05:46:45.119Z,1009.14
2018-02-08T05:47:45.083Z,1009.15
2018-02-08T05:48:45.046Z,1009.16
2018-02-08T05:49:45.010Z,1009.18
2018-02-08T05:50:45.030Z,1009.21
2018-02-08T05:51:44.937Z,1009.19
2018-02-08T05:52:44.901Z,1009.2
2018-02-08T05:53:44.862Z,1009.25
2018-02-08T05:54:44.826Z,1009.26
2018-02-08T05:55:44.790Z,1009.28
2018-02-08T05:56:44.755Z,1009.32
2018-02-08T05:57:44.716Z,1009.31
2018-02-08T05:58:44.679Z,1009.3
2018-02-08T05:59:44.644Z,1009.3
2018-02-08T06:00:44.605Z,1009.31
2018-02-08T06:01:44.570Z,1009.3
2018-02-08T06:02:44.537Z,1009.28
2018-02-08T06:03:44.497Z,1009.34
2018-02-08T06:04:44.462Z,1009.27
2018-02-08T06:05:44.426Z,1009.3
2018-02-08T06:06:44.390Z,1009.34
2018-02-08T06:07:44.349Z,1009.31
2018-02-08T06:08:44.313Z,1009.34
2018-02-08T06:09:44.276Z,1009.34
2018-02-08T06:10:44.338Z,1009.34
2018-02-08T06:11:44.202Z,1009.34
2018-02-08T06:12:44.254Z,1009.33
2018-02-08T06:13:44.188Z,1009.36
2018-02-08T06:14:44.093Z,1009.4
2018-02-08T06:15:44.055Z,1009.44
2018-02-08T06:16:44.022Z,1009.43
2018-02-08T06:17:43.982Z,1009.43
2018-02-08T06:18:43.947Z,1009.46
2018-02-08T06:19:43.908Z,1009.46
2018-02-08T06:20:43.873Z,1009.43
2018-02-08T06:21:43.836Z,1009.49
2018-02-08T06:22:43.799Z,1009.47
2018-02-08T06:23:43.762Z,1009.49
2018-02-08T06:24:43.726Z,1009.46
2018-02-08T06:25:43.690Z,1009.44
2018-02-08T06:26:43.653Z,1009.42
2018-02-08T06:27:43.617Z,1009.48
2018-02-08T06:28:43.579Z,1009.48
2018-02-08T06:29:43.544Z,1009.44
2018-02-08T06:30:43.505Z,1009.47
2018-02-08T06:31:43.471Z,1009.45
2018-02-08T06:32:43.433Z,1009.47
2018-02-08T06:33:43.396Z,1009.47
2018-02-08T06:34:43.360Z,1009.52
2018-02-08T06:35:43.322Z,1009.51
2018-02-08T06:36:43.289Z,1009.52
2018-02-08T06:37:43.250Z,1009.51
2018-02-08T06:38:43.215Z,1009.52
2018-02-08T06:39:43.177Z,1009.5
2018-02-08T06:40:43.139Z,1009.53
2018-02-08T06:41:43.102Z,1009.54
2018-02-08T06:42:43.065Z,1009.56
2018-02-08T06:43:43.029Z,1009.6
2018-02-08T06:44:42.991Z,1009.58
2018-02-08T06:45:42.956Z,1009.57
2018-02-08T06:46:43.029Z,1009.59
2018-02-08T06:47:42.883Z,1009.63
2018-02-08T06:48:42.846Z,1009.62
2018-02-08T06:49:42.809Z,1009.59
2018-02-08T06:50:42.776Z,1009.63
2018-02-08T06:51:42.735Z,1009.67
2018-02-08T06:52:42.699Z,1009.66
2018-02-08T06:53:42.663Z,1009.67
2018-02-08T06:54:42.625Z,1009.71
2018-02-08T06:55:42.589Z,1009.72
2018-02-08T06:56:42.553Z,1009.74
2018-02-08T06:57:42.515Z,1009.75
2018-02-08T06:58:42.480Z,1009.77
2018-02-08T06:59:42.443Z,1009.75
2018-02-08T07:00:42.405Z,1009.77
2018-02-08T07:01:42.369Z,1009.82
2018-02-08T07:02:42.334Z,1009.81
2018-02-08T07:03:42.299Z,1009.81
2018-02-08T07:04:42.260Z,1009.82
2018-02-08T07:05:42.225Z,1009.78
2018-02-08T07:06:42.187Z,1009.87
2018-02-08T07:07:42.150Z,1009.85
2018-02-08T07:08:42.115Z,1009.84
2018-02-08T07:09:42.079Z,1009.82
2018-02-08T07:10:42.043Z,1009.86
2018-02-08T07:11:42.008Z,1009.86
2018-02-08T07:12:41.969Z,1009.88
2018-02-08T07:13:41.933Z,1009.89
2018-02-08T07:14:41.896Z,1009.9
2018-02-08T07:15:41.860Z,1009.88
2018-02-08T07:16:41.930Z,1009.87
2018-02-08T07:17:42.279Z,1009.88
2018-02-08T07:18:41.999Z,1009.87
2018-02-08T07:19:42.073Z,1009.9
2018-02-08T07:20:41.834Z,1009.91
2018-02-08T07:21:41.643Z,1009.9
2018-02-08T07:22:41.608Z,1009.95
2018-02-08T07:23:41.572Z,1009.93
2018-02-08T07:24:41.535Z,1009.9
2018-02-08T07:25:41.500Z,1009.9
2018-02-08T07:26:41.574Z,1009.91
2018-02-08T07:27:41.460Z,1009.95
2018-02-08T07:28:41.393Z,1009.93
2018-02-08T07:29:41.358Z,1009.96
2018-02-08T07:30:41.323Z,1009.94
2018-02-08T07:31:41.287Z,1009.97
2018-02-08T07:32:41.249Z,1010.01
2018-02-08T07:33:41.214Z,1009.97
2018-02-08T07:34:41.178Z,1009.99
2018-02-08T07:35:41.142Z,1009.95
2018-02-08T07:36:41.108Z,1010.01
2018-02-08T07:37:41.071Z,1009.99
2018-02-08T07:38:41.036Z,1010.01
2018-02-08T07:39:40.999Z,1009.94
2018-02-08T07:40:40.964Z,1010
2018-02-08T07:41:40.929Z,1009.99
2018-02-08T07:42:40.894Z,1009.96
2018-02-08T07:43:40.863Z,1009.97
2018-02-08T07:44:40.822Z,1009.99
2018-02-08T07:45:40.788Z,1009.99
2018-02-08T07:46:40.751Z,1010.02
2018-02-08T07:47:40.716Z,1010
2018-02-08T07:48:40.685Z,1010.05
2018-02-08T07:49:40.648Z,1010.06
2018-02-08T07:50:40.610Z,1010.06
2018-02-08T07:51:40.577Z,1010.06
2018-02-08T07:52:40.541Z,1010.05
2018-02-08T07:53:40.506Z,1010.08
2018-02-08T07:54:40.471Z,1010.09
2018-02-08T07:55:40.437Z,1010.09
2018-02-08T07:56:40.402Z,1010.12
2018-02-08T07:57:40.366Z,1010.14
2018-02-08T07:58:40.332Z,1010.09
2018-02-08T07:59:40.297Z,1010.13
2018-02-08T08:00:40.263Z,1010.09
2018-02-08T08:01:40.327Z,1010.07
2018-02-08T08:02:40.194Z,1010.06
2018-02-08T08:03:40.158Z,1010.11
2018-02-08T08:04:40.220Z,1010.12
2018-02-08T08:05:40.090Z,1010.09
2018-02-08T08:06:40.056Z,1010.11
2018-02-08T08:07:40.023Z,1010.08
2018-02-08T08:08:40.295Z,1010.15
2018-02-08T08:09:39.951Z,1010.14
2018-02-08T08:10:40.024Z,1010.14
2018-02-08T08:11:39.884Z,1010.14
2018-02-08T08:12:39.854Z,1010.14
2018-02-08T08:13:39.815Z,1010.13
2018-02-08T08:14:39.781Z,1010.13
2018-02-08T08:15:39.749Z,1010.12
2018-02-08T08:16:39.714Z,1010.15
2018-02-08T08:17:39.678Z,1010.19
2018-02-08T08:18:39.646Z,1010.18
2018-02-08T08:19:39.611Z,1010.18
2018-02-08T08:20:39.576Z,1010.2
2018-02-08T08:21:39.544Z,1010.17
2018-02-08T08:22:39.547Z,1010.2
2018-02-08T08:23:39.584Z,1010.14
2018-02-08T08:24:39.443Z,1010.15
2018-02-08T08:25:39.625Z,1010.17
2018-02-08T08:26:39.686Z,1010.14
2018-02-08T08:27:39.718Z,1010.14
2018-02-08T08:28:39.521Z,1010.14
2018-02-08T08:29:39.365Z,1010.11
2018-02-08T08:30:39.243Z,1010.14
2018-02-08T08:31:39.206Z,1010.15
2018-02-08T08:32:39.173Z,1010.14
2018-02-08T08:33:39.140Z,1010.18
2018-02-08T08:34:39.105Z,1010.18
2018-02-08T08:35:39.072Z,1010.2
2018-02-08T08:36:39.039Z,1010.17
2018-02-08T08:37:39.006Z,1010.21
2018-02-08T08:38:38.971Z,1010.18
2018-02-08T08:39:38.937Z,1010.21
2018-02-08T08:40:38.904Z,1010.2
2018-02-08T08:41:38.934Z,1010.26
2018-02-08T08:42:38.988Z,1010.24
2018-02-08T08:43:38.806Z,1010.28
2018-02-08T08:44:38.771Z,1010.3
2018-02-08T08:45:38.735Z,1010.29
2018-02-08T08:46:38.703Z,1010.28
2018-02-08T08:47:38.673Z,1010.26
2018-02-08T08:48:38.637Z,1010.31
2018-02-08T08:49:38.608Z,1010.29
2018-02-08T08:50:38.571Z,1010.32
2018-02-08T08:51:38.538Z,1010.35
2018-02-08T08:52:38.505Z,1010.38
2018-02-08T08:53:38.474Z,1010.39
2018-02-08T08:54:38.440Z,1010.37
2018-02-08T08:55:38.407Z,1010.41
2018-02-08T08:56:38.374Z,1010.4
2018-02-08T08:57:38.341Z,1010.39
2018-02-08T08:58:38.307Z,1010.38
2018-02-08T08:59:38.275Z,1010.4
2018-02-08T09:00:38.242Z,1010.41
2018-02-08T09:01:38.210Z,1010.43
2018-02-08T09:02:38.178Z,1010.4
2018-02-08T09:03:38.144Z,1010.45
2018-02-08T09:04:38.113Z,1010.45
2018-02-08T09:05:38.134Z,1010.45
2018-02-08T09:06:38.049Z,1010.43
2018-02-08T09:07:38.016Z,1010.46
2018-02-08T09:08:37.983Z,1010.43
2018-02-08T09:09:37.951Z,1010.42
2018-02-08T09:10:37.919Z,1010.4
2018-02-08T09:11:37.888Z,1010.37
2018-02-08T09:12:37.855Z,1010.4
2018-02-08T09:13:37.824Z,1010.38
2018-02-08T09:14:37.793Z,1010.38
2018-02-08T09:15:37.771Z,1010.42
2018-02-08T09:16:37.729Z,1010.4
2018-02-08T09:17:37.965Z,1010.4
2018-02-08T09:18:37.842Z,1010.34
2018-02-08T09:19:37.824Z,1010.4
2018-02-08T09:20:37.601Z,1010.32
2018-02-08T09:21:37.723Z,1010.33
2018-02-08T09:22:37.556Z,1010.33
2018-02-08T09:23:37.512Z,1010.35
2018-02-08T09:24:37.474Z,1010.35
2018-02-08T09:25:37.442Z,1010.37
2018-02-08T09:26:37.410Z,1010.41
2018-02-08T09:27:37.378Z,1010.41
2018-02-08T09:28:37.346Z,1010.44
2018-02-08T09:29:37.314Z,1010.42
2018-02-08T09:30:37.283Z,1010.43
2018-02-08T09:31:37.252Z,1010.44
2018-02-08T09:32:37.290Z,1010.43
2018-02-08T09:33:37.187Z,1010.49
2018-02-08T09:34:37.157Z,1010.49
2018-02-08T09:35:37.125Z,1010.51
2018-02-08T09:36:37.093Z,1010.45
2018-02-08T09:37:37.062Z,1010.45
2018-02-08T09:38:37.029Z,1010.43
2018-02-08T09:39:37.002Z,1010.45
2018-02-08T09:40:36.966Z,1010.4
2018-02-08T09:41:36.935Z,1010.4
2018-02-08T09:42:36.902Z,1010.41
2018-02-08T09:43:36.871Z,1010.37
2018-02-08T09:44:36.840Z,1010.4
2018-02-08T09:45:36.808Z,1010.41
2018-02-08T09:46:36.775Z,1010.41
2018-02-08T09:47:36.742Z,1010.41
2018-02-08T09:48:36.712Z,1010.42
2018-02-08T09:49:36.685Z,1010.43
2018-02-08T09:50:36.689Z,1010.43
2018-02-08T09:51:36.616Z,1010.4
2018-02-08T09:52:36.585Z,1010.4
2018-02-08T09:53:36.552Z,1010.4
2018-02-08T09:54:36.520Z,1010.42
2018-02-08T09:55:36.486Z,1010.41
2018-02-08T09:56:36.455Z,1010.44
2018-02-08T09:57:36.423Z,1010.43
2018-02-08T09:58:36.391Z,1010.44
2018-02-08T09:59:36.359Z,1010.44
2018-02-08T10:00:36.327Z,1010.43
2018-02-08T10:01:36.295Z,1010.43
2018-02-08T10:02:36.261Z,1010.51
2018-02-08T10:03:36.229Z,1010.48
2018-02-08T10:04:36.198Z,1010.47
2018-02-08T10:05:36.165Z,1010.46
2018-02-08T10:06:36.132Z,1010.47
2018-02-08T10:07:36.100Z,1010.46
2018-02-08T10:08:36.067Z,1010.5
2018-02-08T10:09:36.034Z,1010.47
2018-02-08T10:10:36.024Z,1010.49
2018-02-08T10:11:35.979Z,1010.53
2018-02-08T10:12:35.937Z,1010.5
2018-02-08T10:13:35.907Z,1010.53
2018-02-08T10:14:35.916Z,1010.46
2018-02-08T10:15:35.841Z,1010.52
2018-02-08T10:16:35.808Z,1010.52
2018-02-08T10:17:35.779Z,1010.52
2018-02-08T10:18:35.742Z,1010.58
2018-02-08T10:19:35.711Z,1010.54
2018-02-08T10:20:35.676Z,1010.58
2018-02-08T10:21:35.916Z,1010.58
2018-02-08T10:22:35.612Z,1010.54
2018-02-08T10:23:35.580Z,1010.55
2018-02-08T10:24:35.548Z,1010.56
2018-02-08T10:25:35.515Z,1010.51
2018-02-08T10:26:35.483Z,1010.54
2018-02-08T10:27:35.450Z,1010.51
2018-02-08T10:28:35.417Z,1010.44
2018-02-08T10:29:35.387Z,1010.45
2018-02-08T10:30:35.354Z,1010.43
2018-02-08T10:31:35.320Z,1010.46
2018-02-08T10:32:35.288Z,1010.4
2018-02-08T10:33:35.256Z,1010.41
2018-02-08T10:34:35.223Z,1010.37
2018-02-08T10:35:35.191Z,1010.4
2018-02-08T10:36:35.159Z,1010.41
2018-02-08T10:37:35.134Z,1010.4
2018-02-08T10:38:35.097Z,1010.36
2018-02-08T10:39:35.061Z,1010.37
2018-02-08T10:40:35.029Z,1010.28
2018-02-08T10:41:34.998Z,1010.33
2018-02-08T10:42:34.965Z,1010.36
2018-02-08T10:43:34.932Z,1010.36
2018-02-08T10:44:34.900Z,1010.31
2018-02-08T10:45:34.868Z,1010.26
2018-02-08T10:46:34.836Z,1010.28
2018-02-08T10:47:34.804Z,1010.3
2018-02-08T10:48:34.772Z,1010.29
2018-02-08T10:49:34.738Z,1010.3
2018-02-08T10:50:34.707Z,1010.25
2018-02-08T10:51:34.675Z,1010.3
2018-02-08T10:52:34.643Z,1010.3
2018-02-08T10:53:34.610Z,1010.28
2018-02-08T10:54:34.579Z,1010.27
2018-02-08T10:55:34.553Z,1010.26
2018-02-08T10:56:34.513Z,1010.23
2018-02-08T10:57:34.528Z,1010.21
2018-02-08T10:58:34.450Z,1010.25
2018-02-08T10:59:34.421Z,1010.21
2018-02-08T11:00:34.390Z,1010.24
2018-02-08T11:01:34.357Z,1010.25
2018-02-08T11:02:34.324Z,1010.25
2018-02-08T11:03:34.291Z,1010.26
2018-02-08T11:04:34.259Z,1010.24
2018-02-08T11:05:34.227Z,1010.22
2018-02-08T11:06:34.198Z,1010.25
2018-02-08T11:07:34.165Z,1010.27
2018-02-08T11:08:34.132Z,1010.24
2018-02-08T11:09:34.100Z,1010.23
2018-02-08T11:10:34.069Z,1010.23
2018-02-08T11:11:34.038Z,1010.19
2018-02-08T11:12:34.006Z,1010.19
2018-02-08T11:13:33.975Z,1010.23
2018-02-08T11:14:33.943Z,1010.18
2018-02-08T11:15:33.910Z,1010.19
2018-02-08T11:16:33.880Z,1010.18
2018-02-08T11:17:33.848Z,1010.14
2018-02-08T11:18:33.815Z,1010.19
2018-02-08T11:19:33.784Z,1010.16
2018-02-08T11:20:33.753Z,1010.16
2018-02-08T11:21:34.122Z,1010.15
2018-02-08T11:22:34.204Z,1010.12
2018-02-08T11:23:34.036Z,1010.14
2018-02-08T11:24:33.628Z,1010.09
2018-02-08T11:25:33.597Z,1010.1
2018-02-08T11:26:33.566Z,1010.12
2018-02-08T11:27:33.593Z,1010.09
2018-02-08T11:28:33.501Z,1010.11
2018-02-08T11:29:33.470Z,1010.12
2018-02-08T11:30:33.439Z,1010.1
2018-02-08T11:31:33.406Z,1010.1
2018-02-08T11:32:33.376Z,1010.11
2018-02-08T11:33:33.345Z,1010.13
2018-02-08T11:34:33.314Z,1010.12
2018-02-08T11:35:33.283Z,1010.11
2018-02-08T11:36:33.250Z,1010.14
2018-02-08T11:37:33.260Z,1010.12
2018-02-08T11:38:33.187Z,1010.11
2018-02-08T11:39:33.156Z,1010.12
2018-02-08T11:40:33.124Z,1010.11
2018-02-08T11:41:33.092Z,1010.13
2018-02-08T11:42:33.063Z,1010.09
2018-02-08T11:43:33.031Z,1010.09
2018-02-08T11:44:33.003Z,1010.08
2018-02-08T11:45:32.970Z,1010.07
2018-02-08T11:46:32.938Z,1010.05
2018-02-08T11:47:32.905Z,1010.06
2018-02-08T11:48:32.875Z,1010
2018-02-08T11:49:32.843Z,1010.01
2018-02-08T11:50:32.811Z,1010.02
2018-02-08T11:51:32.780Z,1010.02
2018-02-08T11:52:32.749Z,1010.03
2018-02-08T11:53:32.717Z,1010.03
2018-02-08T11:54:32.688Z,1010.01
2018-02-08T11:55:32.654Z,1010.05
2018-02-08T11:56:32.623Z,1009.97
2018-02-08T11:57:33.135Z,1010
2018-02-08T11:58:32.563Z,1010.01
2018-02-08T11:59:32.531Z,1010.01
2018-02-08T12:00:32.501Z,1010.03
2018-02-08T12:01:32.470Z,1010.05
2018-02-08T12:02:32.437Z,1010.03
2018-02-08T12:03:32.408Z,1010.04
2018-02-08T12:04:32.377Z,1010.05
2018-02-08T12:05:32.345Z,1010.03
2018-02-08T12:06:32.314Z,1010.01
2018-02-08T12:07:32.283Z,1010.06
2018-02-08T12:08:32.253Z,1010.02